createdAt,value
2023-01-29T00:04:44.705Z,100803.85
2023-01-29T00:09:47.319Z,100806.52
2023-01-29T00:14:49.460Z,100800.36
2023-01-29T00:19:52.056Z,100796.51
2023-01-29T00:24:55.053Z,100787.37
2023-01-29T00:30:16.716Z,100785.21
2023-01-29T00:35:20.462Z,100778.52
2023-01-29T00:40:25.167Z,100767.48
2023-01-29T00:45:28.493Z,100760.79
2023-01-29T00:50:32.771Z,100754.30
2023-01-29T00:55:35.662Z,100753.42
2023-01-29T01:00:38.606Z,100756.16
2023-01-29T01:05:43.343Z,100745.05
2023-01-29T01:10:46.744Z,100738.55
2023-01-29T01:15:49.809Z,100730.77
2023-01-29T01:21:00.393Z,100725.12
2023-01-29T01:26:10.215Z,100707.29
2023-01-29T01:31:14.258Z,100711.42
2023-01-29T01:36:18.327Z,100718.23
2023-01-29T01:41:22.831Z,100720.18
2023-01-29T01:46:27.918Z,100706.85
2023-01-29T01:51:34.776Z,100700.77
2023-01-29T01:56:46.404Z,100706.67
2023-01-29T02:01:54.678Z,100707.19
2023-01-29T02:07:18.315Z,100712.31
2023-01-29T02:12:21.485Z,100717.29
2023-01-29T02:17:24.361Z,100724.21
2023-01-29T02:22:56.111Z,100724.84
2023-01-29T02:28:25.341Z,100723.64
2023-01-29T02:33:48.675Z,100726.49
2023-01-29T02:39:30.508Z,100721.27
2023-01-29T02:44:53.013Z,100716.94
2023-01-29T02:50:05.188Z,100706.54
2023-01-29T02:55:18.518Z,100698.35
2023-01-29T03:00:26.500Z,100700.80
2023-01-29T03:05:33.571Z,100689.23
2023-01-29T03:11:03.437Z,100677.90
2023-01-29T03:16:36.632Z,100682.63
2023-01-29T03:21:51.743Z,100677.05
2023-01-29T03:27:15.872Z,100673.02
2023-01-29T03:32:22.536Z,100683.67
2023-01-29T03:37:37.012Z,100674.77
2023-01-29T03:42:45.796Z,100665.07
2023-01-29T03:48:17.850Z,100664.14
2023-01-29T03:53:44.296Z,100663.02
2023-01-29T03:58:50.880Z,100661.48
2023-01-29T04:04:12.703Z,100649.71
2023-01-29T04:09:25.129Z,100650.83
2023-01-29T04:14:28.021Z,100637.84
2023-01-29T04:19:30.521Z,100651.12
2023-01-29T04:24:33.626Z,100650.48
2023-01-29T04:30:00.337Z,100631.03
2023-01-29T04:35:25.152Z,100627.71
2023-01-29T04:40:37.852Z,100625.77
2023-01-29T04:46:08.455Z,100615.88
2023-01-29T04:51:32.412Z,100614.27
2023-01-29T04:56:46.785Z,100608.38
2023-01-29T05:01:50.389Z,100602.91
2023-01-29T05:06:52.979Z,100606.13
2023-01-29T05:11:55.481Z,100606.58
2023-01-29T05:17:01.435Z,100611.64
2023-01-29T05:22:06.400Z,100618.54
2023-01-29T05:27:49.937Z,100609.17
2023-01-29T05:32:52.978Z,100599.15
2023-01-29T05:37:56.710Z,100595.73
2023-01-29T05:43:00.145Z,100598.63
2023-01-29T05:48:02.973Z,100594.60
2023-01-29T05:53:06.327Z,100589.70
2023-01-29T05:58:09.014Z,100588.80
2023-01-29T06:03:12.218Z,100582.91
2023-01-29T06:08:15.383Z,100577.27
2023-01-29T06:13:19.333Z,100569.67
2023-01-29T06:18:21.442Z,100556.86
2023-01-29T06:23:24.746Z,100563.38
2023-01-29T06:28:27.701Z,100573.96
2023-01-29T06:33:31.084Z,100579.98
2023-01-29T06:38:35.391Z,100581.25
2023-01-29T06:43:39.639Z,100592.58
2023-01-29T06:48:43.012Z,100594.92
2023-01-29T06:53:46.711Z,100591.23
2023-01-29T06:58:50.757Z,100593.44
2023-01-29T07:03:54.058Z,100593.80
2023-01-29T07:08:57.598Z,100594.90
2023-01-29T07:14:01.248Z,100610.42
2023-01-29T07:19:04.208Z,100618.41
2023-01-29T07:24:08.449Z,100621.30
2023-01-29T07:29:11.217Z,100615.48
2023-01-29T07:34:15.033Z,100609.90
2023-01-29T07:39:18.385Z,100598.55
2023-01-29T07:44:22.363Z,100592.89
2023-01-29T07:49:25.504Z,100593.37
2023-01-29T07:54:28.373Z,100586.78
2023-01-29T07:59:32.184Z,100587.34
2023-01-29T08:04:34.767Z,100577.66
2023-01-29T08:09:38.208Z,100571.66
2023-01-29T08:14:40.903Z,100575.86
2023-01-29T08:19:42.997Z,100575.54
2023-01-29T08:24:53.938Z,100564.36
2023-01-29T08:30:03.628Z,100557.35
2023-01-29T08:35:06.591Z,100556.67
2023-01-29T08:40:11.248Z,100551.11
2023-01-29T08:45:14.276Z,100546.60
2023-01-29T08:50:18.316Z,100543.88
2023-01-29T08:55:21.776Z,100547.88
2023-01-29T09:00:25.821Z,100553.31
2023-01-29T09:05:28.658Z,100555.25
2023-01-29T09:10:30.995Z,100553.30
2023-01-29T09:15:33.091Z,100540.39
2023-01-29T09:20:37.644Z,100537.98
2023-01-29T09:25:43.689Z,100531.44
2023-01-29T09:30:47.363Z,100524.65
2023-01-29T09:35:49.695Z,100521.19
2023-01-29T09:41:07.264Z,100512.87
2023-01-29T09:46:40.888Z,100511.91
2023-01-29T09:52:12.825Z,100504.23
2023-01-29T09:57:51.974Z,100499.16
2023-01-29T10:03:17.640Z,100490.14
2023-01-29T10:08:51.204Z,100485.20
2023-01-29T10:14:16.180Z,100480.65
2023-01-29T10:19:49.770Z,100486.20
2023-01-29T10:25:07.115Z,100482.14
2023-01-29T10:30:27.650Z,100476.56
2023-01-29T10:35:36.887Z,100472.95
2023-01-29T10:40:48.040Z,100466.10
2023-01-29T10:46:36.796Z,100466.34
2023-01-29T10:52:13.872Z,100456.45
2023-01-29T10:57:56.886Z,100454.02
2023-01-29T11:03:27.019Z,100452.21
2023-01-29T11:08:39.134Z,100449.62
2023-01-29T11:14:07.677Z,100443.34
2023-01-29T11:19:10.997Z,100440.52
2023-01-29T11:24:18.963Z,100434.95
2023-01-29T11:29:32.107Z,100413.98
2023-01-29T11:34:37.945Z,100411.80
2023-01-29T11:39:47.846Z,100401.74
2023-01-29T11:44:52.123Z,100387.13
2023-01-29T11:49:55.929Z,100383.09
2023-01-29T11:55:04.434Z,100372.03
2023-01-29T12:00:22.256Z,100366.83
2023-01-29T12:05:26.529Z,100353.73
2023-01-29T12:10:37.341Z,100342.80
2023-01-29T12:15:43.618Z,100328.54
2023-01-29T12:20:51.913Z,100325.69
2023-01-29T12:26:20.119Z,100324.16
2023-01-29T12:31:41.215Z,100315.90
2023-01-29T12:37:11.521Z,100307.61
2023-01-29T12:42:23.591Z,100299.77
2023-01-29T12:48:09.384Z,100299.65
2023-01-29T12:53:32.723Z,100307.90
2023-01-29T12:58:39.190Z,100294.32
2023-01-29T13:03:59.531Z,100275.89
2023-01-29T13:09:08.280Z,100278.23
2023-01-29T13:14:23.470Z,100268.80
2023-01-29T13:19:33.334Z,100269.15
2023-01-29T13:24:44.372Z,100277.36
2023-01-29T13:29:53.042Z,100270.52
2023-01-29T13:35:05.824Z,100270.10
2023-01-29T13:40:22.783Z,100272.09
2023-01-29T13:45:42.363Z,100254.42
2023-01-29T13:50:45.998Z,100274.88
2023-01-29T13:55:49.456Z,100276.91
2023-01-29T14:00:52.336Z,100273.48
2023-01-29T14:05:55.493Z,100278.42
2023-01-29T14:11:15.157Z,100280.37
2023-01-29T14:16:18.535Z,100274.15
2023-01-29T14:21:39.214Z,100267.55
2023-01-29T14:26:47.899Z,100263.72
2023-01-29T14:31:58.947Z,100254.33
2023-01-29T14:37:30.245Z,100260.05
2023-01-29T14:42:45.244Z,100240.77
2023-01-29T14:47:48.569Z,100236.98
2023-01-29T14:52:53.803Z,100238.05
2023-01-29T14:57:58.137Z,100245.77
2023-01-29T15:03:04.359Z,100243.79
2023-01-29T15:08:20.383Z,100239.09
2023-01-29T15:13:52.588Z,100247.19
2023-01-29T15:19:04.773Z,100254.17
2023-01-29T15:24:13.916Z,100246.34
2023-01-29T15:29:25.790Z,100240.59
2023-01-29T15:34:28.912Z,100237.13
2023-01-29T15:39:31.713Z,100232.63
2023-01-29T15:44:35.041Z,100233.81
2023-01-29T15:49:40.146Z,100233.01
2023-01-29T15:54:46.105Z,100221.21
2023-01-29T15:59:52.573Z,100217.80
2023-01-29T16:04:56.269Z,100212.55
2023-01-29T16:10:00.513Z,100215.52
2023-01-29T16:15:06.145Z,100215.16
2023-01-29T16:20:31.949Z,100223.11
2023-01-29T16:25:39.249Z,100222.41
2023-01-29T16:30:43.435Z,100215.36
2023-01-29T16:35:54.180Z,100199.66
2023-01-29T16:41:26.440Z,100197.63
2023-01-29T16:46:36.962Z,100188.48
2023-01-29T16:51:40.706Z,100188.75
2023-01-29T16:56:48.637Z,100190.55
2023-01-29T17:01:56.633Z,100183.76
2023-01-29T17:07:03.375Z,100171.52
2023-01-29T17:12:10.590Z,100175.15
2023-01-29T17:21:43.437Z,100174.23
2023-01-29T17:26:50.216Z,100167.02
2023-01-29T17:31:57.092Z,100161.05
2023-01-29T17:37:02.961Z,100151.92
2023-01-29T17:42:14.381Z,100140.30
2023-01-29T17:47:19.856Z,100122.01
2023-01-29T17:52:27.703Z,100117.70
2023-01-29T17:57:33.919Z,100113.58
2023-01-29T18:02:39.607Z,100099.94
2023-01-29T18:07:47.588Z,100088.41
2023-01-29T18:12:53.589Z,100088.40
2023-01-29T18:17:59.419Z,100086.11
2023-01-29T18:23:07.390Z,100080.15
2023-01-29T18:28:19.965Z,100076.32
2023-01-29T18:33:26.698Z,100069.61
2023-01-29T18:38:38.441Z,100056.30
2023-01-29T18:43:48.264Z,100053.55
2023-01-29T18:48:54.350Z,100054.34
2023-01-29T18:54:01.254Z,100055.26
2023-01-29T18:59:08.132Z,100055.55
2023-01-29T19:04:15.769Z,100052.31
2023-01-29T19:09:21.866Z,100048.20
2023-01-29T19:14:28.119Z,100032.33
2023-01-29T19:19:36.028Z,100034.34
2023-01-29T19:24:42.613Z,100029.99
2023-01-29T19:29:48.010Z,100026.05
2023-01-29T19:34:53.271Z,100019.82
2023-01-29T19:39:58.270Z,100013.47
2023-01-29T19:45:03.030Z,100009.77
2023-01-29T19:50:12.365Z,100003.58
2023-01-29T19:55:18.907Z,99994.89
2023-01-29T20:00:24.274Z,99986.74
2023-01-29T20:05:28.830Z,99981.31
2023-01-29T20:10:33.768Z,99977.21
2023-01-29T20:15:39.370Z,99971.68
2023-01-29T20:20:51.563Z,99964.44
2023-01-29T20:26:01.570Z,99961.13
2023-01-29T20:31:09.568Z,99953.23
2023-01-29T20:36:15.407Z,99950.05
2023-01-29T20:41:20.091Z,99945.67
2023-01-29T20:46:24.595Z,99931.13
2023-01-29T20:51:31.424Z,99931.78
2023-01-29T20:56:42.243Z,99925.83
2023-01-29T21:01:48.351Z,99923.35
2023-01-29T21:06:54.835Z,99916.34
2023-01-29T21:12:01.767Z,99910.38
2023-01-29T21:17:06.826Z,99899.34
2023-01-29T21:22:11.409Z,99891.00
2023-01-29T21:27:16.202Z,99891.35
2023-01-29T21:32:21.671Z,99888.05
2023-01-29T21:37:27.131Z,99872.28
2023-01-29T21:42:50.364Z,99862.91
2023-01-29T21:47:55.313Z,99863.33
2023-01-29T21:53:00.017Z,99867.44
2023-01-29T21:58:05.016Z,99861.44
2023-01-29T22:03:08.952Z,99853.60
2023-01-29T22:08:12.442Z,99843.80
2023-01-29T22:13:17.051Z,99834.89
2023-01-29T22:18:24.311Z,99827.88
2023-01-29T22:23:30.263Z,99821.20
2023-01-29T22:28:36.215Z,99814.61
2023-01-29T22:33:40.648Z,99798.45
2023-01-29T22:38:46.089Z,99783.67
2023-01-29T22:43:53.005Z,99769.23
2023-01-29T22:48:57.907Z,99761.09
2023-01-29T22:54:02.594Z,99744.95
2023-01-29T22:59:07.417Z,99726.45
2023-01-29T23:04:12.181Z,99720.71
2023-01-29T23:09:16.830Z,99715.98
2023-01-29T23:14:24.707Z,99709.79
2023-01-29T23:19:30.746Z,99700.09
2023-01-29T23:24:35.301Z,99696.29
2023-01-29T23:29:39.056Z,99692.34
2023-01-29T23:34:43.099Z,99685.77
2023-01-29T23:39:48.110Z,99671.79
2023-01-29T23:44:56.569Z,99652.27
2023-01-29T23:50:02.002Z,99641.70
2023-01-29T23:55:07.648Z,99636.85
